PWSweather.com
Personal Weather Stations
Station Observations
N3SME
Betz Creek, Wilmington Island, Savannah, GA 31410

Betz Creek, Wilmington IslandSavannah, GA 31410

Lat: 32.023021, Lon: -80.959452

Elevation: 15

Station Type: Ambient

Latest ConditionsUpdated 6:15:02 PM EDT Monday, Jul 6, 2015
Currently Today's Max Today's Min Today's Average
Temperature 83.9°F28.8°C 87.7°F30.9°C 70.8°F21.6°C 77.5°F25.3°C
Dew Point 76.8°F24.9°C 78.2°F25.7°C 70.8°F21.6°C 73.8°F23.2°C
Winds 5.1 mph SW8.2 kmh SW 6.9 mph NE11.1 kmh NE - 1.8 mph 2.9 kmh
Wind Gusts 19.2 mph30.9 kmh 22.8 mph36.7 kmh - -
Humidity 79% 100% 70% 89%
Pressure 29.98 in1015.2 mb 30.06 in1017.9 mb 29.98 in1015.2 mb -
Hour Temp Dew Point Humidity Winds Wind Gusts Pressure Precip Precip Rate Daily Precip Total
06:15 PM 83.9°F28.8°C 76.8°F24.9°C 79% 5.1 mph SW8.2 kmh SW 19.2 mph30.9 kmh 29.98 in1015.2 mb 0.00 in0.0 mm 0.00 in0.0 mm 0.00 in0.0 mm
06:00 PM 85.0°F29.4°C 77.4°F25.2°C 78% 1.8 mph SE2.9 kmh SE 14.1 mph22.7 kmh 29.98 in1015.2 mb 0.00 in0.0 mm 0.00 in0.0 mm 0.00 in0.0 mm
05:45 PM 85.0°F29.4°C 77.4°F25.2°C 78% 5.1 mph ESE8.2 kmh ESE 14.1 mph22.7 kmh 29.98 in1015.2 mb 0.00 in0.0 mm 0.00 in0.0 mm 0.00 in0.0 mm
05:30 PM 85.5°F29.7°C 77.2°F25.1°C 76% Calm Calm 12.3 mph19.8 kmh 29.98 in1015.2 mb 0.00 in0.0 mm 0.00 in0.0 mm 0.00 in0.0 mm
05:15 PM 85.9°F29.9°C 77.5°F25.3°C 76% Calm Calm 17.4 mph28.0 kmh 29.99 in1015.6 mb 0.00 in0.0 mm 0.00 in0.0 mm 0.00 in0.0 mm
05:00 PM 86.4°F30.2°C 77.6°F25.3°C 75% 1.8 mph SE2.9 kmh SE 22.8 mph36.7 kmh 29.99 in1015.6 mb 0.00 in0.0 mm 0.00 in0.0 mm 0.00 in0.0 mm
04:45 PM 87.2°F30.7°C 77.9°F25.5°C 74% Calm Calm 15.7 mph25.3 kmh 29.99 in1015.6 mb 0.00 in0.0 mm 0.00 in0.0 mm 0.00 in0.0 mm
04:30 PM 87.0°F30.6°C 78.2°F25.7°C 75% Calm Calm 12.3 mph19.8 kmh 29.99 in1015.6 mb 0.00 in0.0 mm 0.00 in0.0 mm 0.00 in0.0 mm
04:15 PM 86.6°F30.3°C 78.2°F25.7°C 76% Calm Calm 15.7 mph25.3 kmh 29.99 in1015.6 mb 0.00 in0.0 mm 0.00 in0.0 mm 0.00 in0.0 mm
04:00 PM 87.5°F30.8°C 77.9°F25.5°C 73% Calm Calm 12.3 mph19.8 kmh 30.00 in1015.9 mb 0.00 in0.0 mm 0.00 in0.0 mm 0.00 in0.0 mm
03:45 PM 87.3°F30.7°C 77.7°F25.4°C 73% Calm Calm 10.5 mph16.9 kmh 30.00 in1015.9 mb 0.00 in0.0 mm 0.00 in0.0 mm 0.00 in0.0 mm
03:30 PM 86.8°F30.4°C 77.2°F25.1°C 73% Calm Calm 19.2 mph30.9 kmh 30.00 in1015.9 mb 0.00 in0.0 mm 0.00 in0.0 mm 0.00 in0.0 mm
03:15 PM 86.6°F30.3°C 77.8°F25.4°C 75% Calm Calm 15.7 mph25.3 kmh 30.01 in1016.3 mb 0.00 in0.0 mm 0.00 in0.0 mm 0.00 in0.0 mm
03:00 PM 86.8°F30.4°C 77.6°F25.3°C 74% 1.8 mph SE2.9 kmh SE 14.1 mph22.7 kmh 30.01 in1016.3 mb 0.00 in0.0 mm 0.00 in0.0 mm 0.00 in0.0 mm
02:45 PM 87.0°F30.6°C 76.9°F24.9°C 72% 1.8 mph SSE2.9 kmh SSE 14.1 mph22.7 kmh 30.02 in1016.6 mb 0.00 in0.0 mm 0.00 in0.0 mm 0.00 in0.0 mm
02:30 PM 87.7°F30.9°C 78.0°F25.6°C 73% 3.6 mph S5.8 kmh S 15.7 mph25.3 kmh 30.02 in1016.6 mb 0.00 in0.0 mm 0.00 in0.0 mm 0.00 in0.0 mm
02:15 PM 86.8°F30.4°C 76.8°F24.9°C 72% 1.8 mph E2.9 kmh E 12.3 mph19.8 kmh 30.02 in1016.6 mb 0.00 in0.0 mm 0.00 in0.0 mm 0.00 in0.0 mm
02:00 PM 87.7°F30.9°C 77.6°F25.3°C 72% 1.8 mph SE2.9 kmh SE 19.2 mph30.9 kmh 30.03 in1016.9 mb 0.00 in0.0 mm 0.00 in0.0 mm 0.00 in0.0 mm
01:45 PM 86.3°F30.2°C 76.7°F24.8°C 73% 3.6 mph E5.8 kmh E 15.7 mph25.3 kmh 30.03 in1016.9 mb 0.00 in0.0 mm 0.00 in0.0 mm 0.00 in0.0 mm
01:30 PM 84.5°F29.2°C 75.7°F24.3°C 75% 6.9 mph E11.1 kmh E 15.7 mph25.3 kmh 30.04 in1017.3 mb 0.00 in0.0 mm 0.00 in0.0 mm 0.00 in0.0 mm
01:15 PM 83.4°F28.6°C 75.1°F23.9°C 76% 3.6 mph ENE5.8 kmh ENE 12.3 mph19.8 kmh 30.04 in1017.3 mb 0.00 in0.0 mm 0.00 in0.0 mm 0.00 in0.0 mm
01:00 PM 84.1°F28.9°C 75.4°F24.1°C 75% 5.1 mph ENE8.2 kmh ENE 12.3 mph19.8 kmh 30.04 in1017.3 mb 0.00 in0.0 mm 0.00 in0.0 mm 0.00 in0.0 mm
12:45 PM 85.9°F29.9°C 75.5°F24.2°C 71% 1.8 mph WNW2.9 kmh WNW 10.5 mph16.9 kmh 30.04 in1017.3 mb 0.00 in0.0 mm 0.00 in0.0 mm 0.00 in0.0 mm
12:30 PM 86.4°F30.2°C 75.6°F24.2°C 70% Calm Calm 12.3 mph19.8 kmh 30.05 in1017.6 mb 0.00 in0.0 mm 0.00 in0.0 mm 0.00 in0.0 mm
12:15 PM 85.9°F29.9°C 76.3°F24.6°C 73% Calm Calm 8.7 mph14.0 kmh 30.05 in1017.6 mb 0.00 in0.0 mm 0.00 in0.0 mm 0.00 in0.0 mm
12:00 PM 85.4°F29.7°C 76.2°F24.6°C 74% 6.9 mph NE11.1 kmh NE 14.1 mph22.7 kmh 30.05 in1017.6 mb 0.00 in0.0 mm 0.00 in0.0 mm 0.00 in0.0 mm
11:45 AM 83.9°F28.8°C 76.0°F24.4°C 77% 3.6 mph NE5.8 kmh NE 6.9 mph11.1 kmh 30.05 in1017.6 mb 0.00 in0.0 mm 0.00 in0.0 mm 0.00 in0.0 mm
11:30 AM 82.1°F27.8°C 75.8°F24.3°C 81% Calm Calm 8.7 mph14.0 kmh 30.06 in1017.9 mb 0.00 in0.0 mm 0.00 in0.0 mm 0.00 in0.0 mm
11:15 AM 81.4°F27.4°C 75.4°F24.1°C 82% 3.6 mph ESE5.8 kmh ESE 8.7 mph14.0 kmh 30.06 in1017.9 mb 0.00 in0.0 mm 0.00 in0.0 mm 0.00 in0.0 mm
11:00 AM 79.4°F26.3°C 73.9°F23.3°C 83% 1.8 mph WNW2.9 kmh WNW 10.5 mph16.9 kmh 30.06 in1017.9 mb 0.00 in0.0 mm 0.00 in0.0 mm 0.00 in0.0 mm
10:45 AM 78.9°F26.1°C 73.7°F23.2°C 84% 5.1 mph WNW8.2 kmh WNW 12.3 mph19.8 kmh 30.06 in1017.9 mb 0.00 in0.0 mm 0.00 in0.0 mm 0.00 in0.0 mm
10:30 AM 77.4°F25.2°C 74.0°F23.3°C 89% Calm Calm 12.3 mph19.8 kmh 30.06 in1017.9 mb 0.00 in0.0 mm 0.00 in0.0 mm 0.00 in0.0 mm
10:15 AM 76.5°F24.7°C 73.1°F22.8°C 89% 6.9 mph WNW11.1 kmh WNW 12.3 mph19.8 kmh 30.06 in1017.9 mb 0.00 in0.0 mm 0.00 in0.0 mm 0.00 in0.0 mm
10:00 AM 75.8°F24.3°C 73.7°F23.2°C 93% 3.6 mph NW5.8 kmh NW 12.3 mph19.8 kmh 30.06 in1017.9 mb 0.00 in0.0 mm 0.00 in0.0 mm 0.00 in0.0 mm
09:45 AM 74.7°F23.7°C 73.6°F23.1°C 96% 3.6 mph WNW5.8 kmh WNW 15.7 mph25.3 kmh 30.06 in1017.9 mb 0.00 in0.0 mm 0.00 in0.0 mm 0.00 in0.0 mm
09:30 AM 74.2°F23.4°C 74.0°F23.3°C 99% Calm Calm 17.4 mph28.0 kmh 30.06 in1017.9 mb 0.00 in0.0 mm 0.00 in0.0 mm 0.00 in0.0 mm
09:15 AM 73.8°F23.2°C 73.9°F23.3°C 100% 6.9 mph NW11.1 kmh NW 14.1 mph22.7 kmh 30.05 in1017.6 mb 0.00 in0.0 mm 0.00 in0.0 mm 0.00 in0.0 mm
09:00 AM 72.9°F22.7°C 73.0°F22.8°C 100% Calm Calm 6.9 mph11.1 kmh 30.05 in1017.6 mb 0.00 in0.0 mm 0.00 in0.0 mm 0.00 in0.0 mm
08:45 AM 72.0°F22.2°C 72.1°F22.3°C 100% 3.6 mph WNW5.8 kmh WNW 14.1 mph22.7 kmh 30.05 in1017.6 mb 0.00 in0.0 mm 0.00 in0.0 mm 0.00 in0.0 mm
08:30 AM 71.7°F22.1°C 71.7°F22.1°C 100% 3.6 mph NW5.8 kmh NW 12.3 mph19.8 kmh 30.05 in1017.6 mb 0.00 in0.0 mm 0.00 in0.0 mm 0.00 in0.0 mm
08:15 AM 71.3°F21.8°C 71.4°F21.9°C 100% 3.6 mph W5.8 kmh W 10.5 mph16.9 kmh 30.04 in1017.3 mb 0.00 in0.0 mm 0.00 in0.0 mm 0.00 in0.0 mm
08:00 AM 71.1°F21.7°C 71.2°F21.8°C 100% Calm Calm 15.7 mph25.3 kmh 30.04 in1017.3 mb 0.00 in0.0 mm 0.00 in0.0 mm 0.00 in0.0 mm
07:45 AM 71.0°F21.7°C 71.0°F21.7°C 100% Calm Calm 10.5 mph16.9 kmh 30.04 in1017.3 mb 0.00 in0.0 mm 0.00 in0.0 mm 0.00 in0.0 mm
07:30 AM 70.8°F21.6°C 70.8°F21.6°C 100% 1.8 mph WNW2.9 kmh WNW 14.1 mph22.7 kmh 30.03 in1016.9 mb 0.00 in0.0 mm 0.00 in0.0 mm 0.00 in0.0 mm
07:15 AM 70.8°F21.6°C 70.8°F21.6°C 100% Calm Calm 12.3 mph19.8 kmh 30.03 in1016.9 mb 0.00 in0.0 mm 0.00 in0.0 mm 0.00 in0.0 mm
07:00 AM 70.8°F21.6°C 70.8°F21.6°C 100% 1.8 mph W2.9 kmh W 14.1 mph22.7 kmh 30.03 in1016.9 mb 0.00 in0.0 mm 0.00 in0.0 mm 0.00 in0.0 mm
06:45 AM 70.8°F21.6°C 70.8°F21.6°C 100% 3.6 mph W5.8 kmh W 10.5 mph16.9 kmh 30.02 in1016.6 mb 0.00 in0.0 mm 0.00 in0.0 mm 0.00 in0.0 mm
06:30 AM 71.0°F21.7°C 71.0°F21.7°C 100% Calm Calm 10.5 mph16.9 kmh 30.01 in1016.3 mb 0.00 in0.0 mm 0.00 in0.0 mm 0.00 in0.0 mm
06:15 AM 71.1°F21.7°C 71.2°F21.8°C 100% Calm Calm 5.1 mph8.2 kmh 30.01 in1016.3 mb 0.00 in0.0 mm 0.00 in0.0 mm 0.00 in0.0 mm
06:00 AM 71.1°F21.7°C 71.2°F21.8°C 100% Calm Calm 8.7 mph14.0 kmh 30.01 in1016.3 mb 0.00 in0.0 mm 0.00 in0.0 mm 0.00 in0.0 mm
05:45 AM 71.1°F21.7°C 71.2°F21.8°C 100% 3.6 mph WNW5.8 kmh WNW 14.1 mph22.7 kmh 30.01 in1016.3 mb 0.00 in0.0 mm 0.00 in0.0 mm 0.00 in0.0 mm
05:30 AM 71.1°F21.7°C 71.2°F21.8°C 100% Calm Calm 6.9 mph11.1 kmh 30.01 in1016.3 mb 0.00 in0.0 mm 0.00 in0.0 mm 0.00 in0.0 mm
05:15 AM 71.3°F21.8°C 71.4°F21.9°C 100% 3.6 mph WNW5.8 kmh WNW 8.7 mph14.0 kmh 30.01 in1016.3 mb 0.00 in0.0 mm 0.00 in0.0 mm 0.00 in0.0 mm
05:00 AM 71.1°F21.7°C 71.2°F21.8°C 100% Calm Calm 6.9 mph11.1 kmh 30.00 in1015.9 mb 0.00 in0.0 mm 0.00 in0.0 mm 0.00 in0.0 mm
04:45 AM 71.1°F21.7°C 71.2°F21.8°C 100% Calm Calm 6.9 mph11.1 kmh 30.00 in1015.9 mb 0.00 in0.0 mm 0.00 in0.0 mm 0.00 in0.0 mm
04:30 AM 71.1°F21.7°C 71.2°F21.8°C 100% 1.8 mph W2.9 kmh W 8.7 mph14.0 kmh 30.01 in1016.3 mb 0.00 in0.0 mm 0.00 in0.0 mm 0.00 in0.0 mm
04:15 AM 71.0°F21.7°C 71.0°F21.7°C 100% Calm Calm 6.9 mph11.1 kmh 30.01 in1016.3 mb 0.00 in0.0 mm 0.00 in0.0 mm 0.00 in0.0 mm
04:00 AM 71.0°F21.7°C 71.0°F21.7°C 100% 1.8 mph WSW2.9 kmh WSW 6.9 mph11.1 kmh 30.00 in1015.9 mb 0.00 in0.0 mm 0.00 in0.0 mm 0.00 in0.0 mm
03:45 AM 71.0°F21.7°C 71.0°F21.7°C 100% Calm Calm 6.9 mph11.1 kmh 30.00 in1015.9 mb 0.00 in0.0 mm 0.00 in0.0 mm 0.00 in0.0 mm
03:30 AM 71.1°F21.7°C 71.2°F21.8°C 100% Calm Calm 12.3 mph19.8 kmh 30.00 in1015.9 mb 0.00 in0.0 mm 0.00 in0.0 mm 0.00 in0.0 mm
03:15 AM 71.3°F21.8°C 71.4°F21.9°C 100% Calm Calm 8.7 mph14.0 kmh 30.00 in1015.9 mb 0.00 in0.0 mm 0.00 in0.0 mm 0.00 in0.0 mm
03:00 AM 71.3°F21.8°C 71.4°F21.9°C 100% Calm Calm 6.9 mph11.1 kmh 30.01 in1016.3 mb 0.00 in0.0 mm 0.00 in0.0 mm 0.00 in0.0 mm
02:45 AM 71.1°F21.7°C 71.2°F21.8°C 100% Calm Calm 10.5 mph16.9 kmh 30.00 in1015.9 mb 0.00 in0.0 mm 0.00 in0.0 mm 0.00 in0.0 mm
02:30 AM 71.1°F21.7°C 71.2°F21.8°C 100% Calm Calm 5.1 mph8.2 kmh 30.01 in1016.3 mb 0.00 in0.0 mm 0.00 in0.0 mm 0.00 in0.0 mm
02:15 AM 71.1°F21.7°C 71.2°F21.8°C 100% 1.8 mph WSW2.9 kmh WSW 6.9 mph11.1 kmh 30.01 in1016.3 mb 0.00 in0.0 mm 0.00 in0.0 mm 0.00 in0.0 mm
02:00 AM 71.3°F21.8°C 71.4°F21.9°C 100% 6.9 mph WSW11.1 kmh WSW 14.1 mph22.7 kmh 30.02 in1016.6 mb 0.00 in0.0 mm 0.00 in0.0 mm 0.00 in0.0 mm
01:45 AM 71.3°F21.8°C 71.4°F21.9°C 100% Calm Calm 10.5 mph16.9 kmh 30.02 in1016.6 mb 0.00 in0.0 mm 0.00 in0.0 mm 0.00 in0.0 mm
01:30 AM 71.3°F21.8°C 71.4°F21.9°C 100% Calm Calm 3.6 mph5.8 kmh 30.02 in1016.6 mb 0.00 in0.0 mm 0.00 in0.0 mm 0.00 in0.0 mm
01:15 AM 71.3°F21.8°C 71.4°F21.9°C 100% Calm Calm 6.9 mph11.1 kmh 30.02 in1016.6 mb 0.00 in0.0 mm 0.00 in0.0 mm 0.00 in0.0 mm
01:00 AM 71.3°F21.8°C 71.4°F21.9°C 100% 1.8 mph WSW2.9 kmh WSW 10.5 mph16.9 kmh 30.01 in1016.3 mb 0.00 in0.0 mm 0.00 in0.0 mm 0.00 in0.0 mm
12:45 AM 71.5°F21.9°C 71.5°F21.9°C 100% Calm Calm 10.5 mph16.9 kmh 30.01 in1016.3 mb 0.00 in0.0 mm 0.00 in0.0 mm 0.00 in0.0 mm
12:30 AM 71.9°F22.2°C 71.9°F22.2°C 100% Calm Calm 8.7 mph14.0 kmh 30.01 in1016.3 mb 0.00 in0.0 mm 0.00 in0.0 mm 0.00 in0.0 mm
12:15 AM 71.7°F22.1°C 71.7°F22.1°C 100% 1.8 mph WSW2.9 kmh WSW 5.1 mph8.2 kmh 30.01 in1016.3 mb 0.00 in0.0 mm 0.00 in0.0 mm 0.00 in0.0 mm
12:00 AM 71.5°F21.9°C 71.5°F21.9°C 100% 1.8 mph WSW2.9 kmh WSW 8.7 mph14.0 kmh 30.01 in1016.3 mb 0.00 in0.0 mm 0.00 in0.0 mm 0.00 in0.0 mm